createdAt,value
2019-02-17T00:02:20.142Z,20.83
2019-02-17T00:04:50.286Z,20.57
2019-02-17T00:07:20.476Z,20.47
2019-02-17T00:09:50.662Z,20.97
2019-02-17T00:12:20.538Z,21.97
2019-02-17T00:14:51.091Z,21.60
2019-02-17T00:17:21.189Z,21.63
2019-02-17T00:19:50.917Z,21.03
2019-02-17T00:22:21.617Z,21.47
2019-02-17T00:24:51.861Z,19.83
2019-02-17T00:27:21.935Z,21.17
2019-02-17T00:29:52.003Z,20.87
2019-02-17T00:32:22.111Z,21.37
2019-02-17T00:34:52.114Z,21.83
2019-02-17T00:37:23.025Z,22.00
2019-02-17T00:39:52.918Z,21.03
2019-02-17T00:42:22.970Z,21.80
2019-02-17T00:44:53.351Z,22.40
2019-02-17T00:47:23.354Z,21.30
2019-02-17T00:49:53.463Z,22.57
2019-02-17T00:52:23.829Z,20.93
2019-02-17T00:54:54.132Z,21.80
2019-02-17T00:57:24.258Z,21.97
2019-02-17T00:59:55.140Z,21.90
2019-02-17T01:02:26.685Z,21.40
2019-02-17T01:04:57.170Z,22.03
2019-02-17T01:07:27.673Z,22.87
2019-02-17T01:09:58.131Z,22.33
2019-02-17T01:12:28.108Z,22.13
2019-02-17T01:14:58.623Z,22.00
2019-02-17T01:17:28.970Z,20.90
2019-02-17T01:19:59.693Z,21.60
2019-02-17T01:22:30.015Z,21.57
2019-02-17T01:25:00.264Z,22.07
2019-02-17T01:27:30.666Z,21.13
2019-02-17T01:30:00.743Z,20.33
2019-02-17T01:32:31.196Z,20.30
2019-02-17T01:35:01.346Z,22.43
2019-02-17T01:37:32.346Z,21.53
2019-02-17T01:40:02.229Z,20.97
2019-02-17T01:42:32.346Z,21.63
2019-02-17T01:45:02.718Z,21.80
2019-02-17T01:47:32.845Z,21.70
2019-02-17T01:50:02.849Z,21.57
2019-02-17T01:52:33.518Z,21.27
2019-02-17T01:55:03.395Z,20.83
2019-02-17T01:57:33.510Z,21.30
2019-02-17T02:00:03.617Z,21.77
2019-02-17T02:02:34.447Z,21.00
2019-02-17T02:05:06.234Z,21.33
2019-02-17T02:07:36.375Z,21.57
2019-02-17T02:10:09.531Z,20.67
2019-02-17T02:12:39.996Z,20.27
2019-02-17T02:15:11.903Z,19.57
2019-02-17T02:17:42.071Z,19.03
2019-02-17T02:20:13.675Z,20.30
2019-02-17T02:22:43.788Z,19.57
2019-02-17T02:25:13.873Z,19.37
2019-02-17T02:27:44.082Z,18.87
2019-02-17T02:30:14.846Z,19.40
2019-02-17T02:32:45.046Z,20.90
2019-02-17T02:35:15.552Z,18.97
2019-02-17T02:37:46.250Z,20.17
2019-02-17T02:40:16.582Z,20.67
2019-02-17T02:42:46.581Z,21.10
2019-02-17T02:45:16.597Z,21.80
2019-02-17T02:47:47.413Z,21.43
2019-02-17T02:50:17.437Z,21.00
2019-02-17T02:52:47.781Z,22.87
2019-02-17T02:55:17.906Z,23.97
2019-02-17T02:57:47.953Z,22.40
2019-02-17T03:00:18.003Z,22.20
2019-02-17T03:02:47.983Z,23.23
2019-02-17T03:05:18.358Z,23.47
2019-02-17T03:07:49.405Z,23.43
2019-02-17T03:10:19.426Z,23.87
2019-02-17T03:12:49.742Z,23.87
2019-02-17T03:15:20.047Z,24.63
2019-02-17T03:17:50.238Z,24.87
2019-02-17T03:20:20.192Z,23.53
2019-02-17T03:22:50.634Z,24.37
2019-02-17T03:25:20.604Z,24.93
2019-02-17T03:27:50.751Z,24.90
2019-02-17T03:30:21.194Z,24.70
2019-02-17T03:32:51.416Z,24.43
2019-02-17T03:35:21.520Z,25.37
2019-02-17T03:37:52.209Z,25.20
2019-02-17T03:40:22.561Z,25.07
2019-02-17T03:42:53.603Z,25.03
2019-02-17T03:45:24.347Z,24.73
2019-02-17T03:47:54.438Z,25.63
2019-02-17T03:50:24.221Z,25.57
2019-02-17T03:52:54.932Z,26.43
2019-02-17T03:55:25.013Z,24.87
2019-02-17T03:57:55.128Z,24.50
2019-02-17T04:00:25.885Z,24.03
2019-02-17T04:02:56.100Z,24.53
2019-02-17T04:05:25.921Z,24.97
2019-02-17T04:07:56.314Z,25.03
2019-02-17T04:10:27.113Z,26.20
2019-02-17T04:12:57.238Z,26.50
2019-02-17T04:15:27.850Z,26.53
2019-02-17T04:17:57.763Z,26.83
2019-02-17T04:20:27.764Z,27.27
2019-02-17T04:22:58.192Z,26.60
2019-02-17T04:25:28.210Z,26.67
2019-02-17T04:27:58.356Z,26.13
2019-02-17T04:30:29.865Z,26.80
2019-02-17T04:33:00.149Z,27.13
2019-02-17T04:35:30.263Z,27.00
2019-02-17T04:38:00.665Z,25.67
2019-02-17T04:40:30.760Z,26.73
2019-02-17T04:43:00.840Z,26.10
2019-02-17T04:45:31.461Z,27.07
2019-02-17T04:48:01.389Z,27.47
2019-02-17T04:50:31.417Z,27.30
2019-02-17T04:53:01.933Z,27.33
2019-02-17T04:55:31.893Z,26.77
2019-02-17T04:58:01.981Z,26.80
2019-02-17T05:00:39.873Z,27.80
2019-02-17T05:03:24.332Z,27.23
2019-02-17T05:05:54.301Z,28.03
2019-02-17T05:08:24.593Z,27.80
2019-02-17T05:10:54.613Z,29.60
2019-02-17T05:13:25.553Z,29.40
2019-02-17T05:16:14.907Z,32.07
2019-02-17T05:18:44.981Z,30.90
2019-02-17T05:21:15.437Z,32.60
2019-02-17T05:23:45.463Z,31.80
2019-02-17T05:26:15.498Z,32.47
2019-02-17T05:28:45.457Z,31.73
2019-02-17T05:31:15.411Z,33.57
2019-02-17T05:33:45.876Z,32.17
2019-02-17T05:36:15.882Z,32.43
2019-02-17T05:38:45.956Z,32.13
2019-02-17T05:41:16.041Z,33.90
2019-02-17T05:43:46.162Z,33.23
2019-02-17T05:46:16.133Z,34.50
2019-02-17T05:48:46.619Z,32.90
2019-02-17T05:51:16.678Z,35.17
2019-02-17T05:53:46.857Z,34.87
2019-02-17T05:56:17.081Z,34.00
2019-02-17T05:58:47.373Z,34.47
2019-02-17T06:01:17.362Z,36.17
2019-02-17T06:03:47.710Z,36.17
2019-02-17T06:06:17.947Z,35.47
2019-02-17T06:08:48.506Z,35.37
2019-02-17T06:11:19.013Z,36.57
2019-02-17T06:13:49.718Z,36.27
2019-02-17T06:16:20.107Z,37.23
2019-02-17T06:18:50.618Z,37.00
2019-02-17T06:21:20.829Z,37.10
2019-02-17T06:23:50.963Z,35.23
2019-02-17T06:26:21.689Z,37.83
2019-02-17T06:28:51.738Z,38.10
2019-02-17T06:31:22.098Z,38.13
2019-02-17T06:33:53.085Z,39.33
2019-02-17T06:36:43.821Z,38.77
2019-02-17T06:39:14.048Z,39.40
2019-02-17T06:41:45.339Z,38.60
2019-02-17T06:44:15.714Z,41.63
2019-02-17T06:46:47.586Z,40.83
2019-02-17T06:49:38.202Z,40.73
2019-02-17T06:52:08.721Z,40.27
2019-02-17T06:54:39.963Z,40.83
2019-02-17T06:57:14.901Z,41.30
2019-02-17T06:59:44.918Z,39.87
2019-02-17T07:02:18.599Z,38.67
2019-02-17T07:05:07.611Z,41.03
2019-02-17T07:07:39.415Z,38.40
2019-02-17T07:10:09.621Z,41.40
2019-02-17T07:12:42.619Z,38.50
2019-02-17T07:15:12.306Z,36.27
2019-02-17T07:17:43.012Z,39.70
2019-02-17T07:20:13.890Z,38.40
2019-02-17T07:22:44.122Z,37.47
2019-02-17T07:25:14.294Z,37.77
2019-02-17T07:27:44.552Z,37.33
2019-02-17T07:30:16.163Z,38.43
2019-02-17T07:32:46.070Z,37.60
2019-02-17T07:35:16.400Z,33.73
2019-02-17T07:37:46.607Z,35.33
2019-02-17T07:40:17.035Z,36.37
2019-02-17T07:42:47.682Z,35.50
2019-02-17T07:45:17.893Z,36.27
2019-02-17T07:47:50.042Z,36.23
2019-02-17T07:50:20.381Z,37.00
2019-02-17T07:52:50.661Z,36.57
2019-02-17T07:55:20.923Z,36.27
2019-02-17T07:57:51.193Z,37.60
2019-02-17T08:00:21.377Z,36.90
2019-02-17T08:02:51.584Z,38.03
2019-02-17T08:05:23.331Z,37.13
2019-02-17T08:07:53.359Z,37.70
2019-02-17T08:10:23.668Z,38.67
2019-02-17T08:12:53.980Z,40.23
2019-02-17T08:15:24.423Z,38.20
2019-02-17T08:17:55.387Z,48.13
2019-02-17T08:20:25.516Z,40.47
2019-02-17T08:22:55.930Z,39.20
2019-02-17T08:25:25.849Z,37.60
2019-02-17T08:27:56.230Z,37.60
2019-02-17T08:30:26.649Z,36.70
2019-02-17T08:32:57.226Z,42.40
2019-02-17T08:35:27.162Z,38.87
2019-02-17T08:37:57.218Z,37.33
2019-02-17T08:40:27.386Z,38.27
2019-02-17T08:42:58.085Z,36.87
2019-02-17T08:45:28.304Z,38.57
2019-02-17T08:47:58.563Z,38.80
2019-02-17T08:50:28.900Z,38.93
2019-02-17T08:52:59.054Z,38.73
2019-02-17T08:55:29.012Z,38.23
2019-02-17T08:57:59.763Z,38.07
2019-02-17T09:00:30.222Z,38.67
2019-02-17T09:03:00.555Z,37.63
2019-02-17T09:05:30.536Z,37.07
2019-02-17T09:08:00.625Z,38.23
2019-02-17T09:10:30.588Z,38.53
2019-02-17T09:13:01.062Z,37.37
2019-02-17T09:15:30.963Z,37.77
2019-02-17T09:18:00.940Z,38.20
2019-02-17T09:20:31.836Z,65.13
2019-02-17T09:23:02.889Z,40.63
2019-02-17T09:25:33.466Z,37.47
2019-02-17T09:28:03.755Z,38.17
2019-02-17T09:30:33.702Z,39.20
2019-02-17T09:33:03.907Z,38.33
2019-02-17T09:35:34.523Z,38.63
2019-02-17T09:38:04.447Z,40.77
2019-02-17T09:40:34.446Z,39.80
2019-02-17T09:43:05.010Z,39.07
2019-02-17T09:45:35.168Z,41.53
2019-02-17T09:48:05.321Z,41.47
2019-02-17T09:50:38.450Z,39.87
2019-02-17T09:53:08.405Z,40.87
2019-02-17T09:55:39.488Z,40.37
2019-02-17T09:58:10.077Z,39.57
2019-02-17T10:00:40.332Z,39.43
2019-02-17T10:03:10.358Z,38.83
2019-02-17T10:05:40.512Z,40.13
2019-02-17T10:08:10.503Z,38.43
2019-02-17T10:10:40.528Z,38.10
2019-02-17T10:13:10.819Z,35.60
2019-02-17T10:15:42.474Z,35.63
2019-02-17T10:18:12.591Z,34.73
2019-02-17T10:20:43.551Z,35.17
2019-02-17T10:23:14.354Z,34.07
2019-02-17T10:25:53.042Z,34.50
2019-02-17T10:28:23.235Z,34.67
2019-02-17T10:30:53.443Z,33.73
2019-02-17T10:33:23.796Z,34.07
2019-02-17T10:35:53.839Z,30.80
2019-02-17T10:38:24.085Z,33.57
2019-02-17T10:40:54.237Z,32.67
2019-02-17T10:43:24.338Z,34.23
2019-02-17T10:45:54.510Z,33.03
2019-02-17T10:48:24.539Z,32.13
2019-02-17T10:50:55.767Z,31.33
2019-02-17T10:53:29.716Z,31.13
2019-02-17T10:55:59.896Z,32.27
2019-02-17T10:58:30.777Z,31.00
2019-02-17T11:01:01.016Z,31.17
2019-02-17T11:03:31.054Z,30.10
2019-02-17T11:06:01.760Z,31.93
2019-02-17T11:08:32.655Z,31.13
2019-02-17T11:11:02.926Z,31.83
2019-02-17T11:13:34.255Z,31.83
2019-02-17T11:16:08.025Z,30.97
2019-02-17T11:18:41.762Z,29.87
2019-02-17T11:21:18.652Z,31.67
2019-02-17T11:23:50.624Z,30.47
2019-02-17T11:26:24.971Z,31.40
2019-02-17T11:28:59.650Z,29.97
2019-02-17T11:31:30.996Z,30.03
2019-02-17T11:34:01.903Z,31.07
2019-02-17T11:36:33.169Z,30.20
2019-02-17T11:39:03.719Z,30.13
2019-02-17T11:41:34.889Z,30.37
2019-02-17T11:44:05.704Z,29.87
2019-02-17T11:46:36.672Z,27.27
2019-02-17T11:49:07.769Z,30.83
2019-02-17T11:51:38.629Z,28.10
2019-02-17T11:54:09.362Z,27.43
2019-02-17T11:56:39.902Z,27.90
2019-02-17T11:59:10.573Z,28.13
2019-02-17T12:01:41.481Z,27.70
2019-02-17T12:04:11.882Z,26.93
2019-02-17T12:06:42.190Z,26.53
2019-02-17T12:09:14.278Z,26.70
2019-02-17T12:11:44.627Z,26.03
2019-02-17T12:14:16.390Z,26.90
2019-02-17T12:16:47.390Z,25.90
2019-02-17T12:19:17.837Z,26.13
2019-02-17T12:21:49.636Z,25.43
2019-02-17T12:24:24.463Z,26.10
2019-02-17T12:26:56.386Z,26.20
2019-02-17T12:29:28.421Z,24.90
2019-02-17T12:31:59.808Z,26.97
2019-02-17T12:34:30.127Z,25.53
2019-02-17T12:37:01.095Z,25.57
2019-02-17T12:39:31.580Z,25.63
2019-02-17T12:42:02.673Z,25.43
2019-02-17T12:44:35.568Z,24.20
2019-02-17T12:47:05.581Z,24.67
2019-02-17T12:49:38.176Z,24.63
2019-02-17T12:52:08.771Z,24.13
2019-02-17T12:54:39.243Z,24.90
2019-02-17T12:57:09.783Z,24.93
2019-02-17T12:59:40.267Z,23.63
2019-02-17T13:02:11.780Z,24.33
2019-02-17T13:04:42.470Z,23.23
2019-02-17T13:07:12.790Z,24.83
2019-02-17T13:09:43.085Z,24.63
2019-02-17T13:12:13.593Z,23.27
2019-02-17T13:14:43.803Z,23.67
2019-02-17T13:17:14.105Z,23.10
2019-02-17T13:19:44.432Z,24.83
2019-02-17T13:22:14.723Z,22.57
2019-02-17T13:24:45.035Z,24.37
2019-02-17T13:27:15.415Z,23.00
2019-02-17T13:29:48.592Z,24.00
2019-02-17T13:32:19.447Z,22.13
2019-02-17T13:34:51.050Z,22.63
2019-02-17T13:37:21.579Z,23.03
2019-02-17T13:39:51.855Z,22.50
2019-02-17T13:42:22.661Z,22.87
2019-02-17T13:44:53.109Z,21.17
2019-02-17T13:47:23.635Z,24.40
2019-02-17T13:49:54.868Z,22.70
2019-02-17T13:52:25.804Z,21.80
2019-02-17T13:54:56.198Z,21.43
2019-02-17T13:57:32.183Z,21.23
2019-02-17T14:00:03.731Z,22.63
2019-02-17T14:02:34.197Z,23.30
2019-02-17T14:05:04.977Z,22.67
2019-02-17T14:07:36.340Z,23.03
2019-02-17T14:10:09.619Z,23.30
2019-02-17T14:12:40.523Z,21.33
2019-02-17T14:15:16.147Z,21.07
2019-02-17T14:17:46.570Z,21.87
2019-02-17T14:20:16.969Z,22.57
2019-02-17T14:22:47.525Z,22.40
2019-02-17T14:25:18.946Z,45.90
2019-02-17T14:27:49.481Z,23.70
2019-02-17T14:30:22.046Z,22.33
2019-02-17T14:32:52.492Z,21.27
2019-02-17T14:35:25.192Z,21.43
2019-02-17T14:37:56.813Z,22.03
2019-02-17T14:40:27.352Z,22.27
2019-02-17T14:42:58.921Z,22.53
2019-02-17T14:45:30.351Z,22.13
2019-02-17T14:48:01.007Z,22.00
2019-02-17T14:50:31.505Z,22.47
2019-02-17T14:53:02.057Z,21.87
2019-02-17T14:55:32.312Z,21.87
2019-02-17T14:58:05.297Z,20.73
2019-02-17T15:00:35.655Z,21.20
2019-02-17T15:03:06.020Z,22.00
2019-02-17T15:05:36.716Z,20.97
2019-02-17T15:08:07.985Z,21.93
2019-02-17T15:10:38.501Z,20.73
2019-02-17T15:13:08.754Z,21.40
2019-02-17T15:15:39.274Z,20.73
2019-02-17T15:18:09.687Z,21.77
2019-02-17T15:20:40.206Z,20.87
2019-02-17T15:23:10.951Z,21.00
2019-02-17T15:25:41.668Z,20.70
2019-02-17T15:28:12.225Z,21.53
2019-02-17T15:30:42.768Z,29.03
2019-02-17T15:33:13.383Z,19.50
2019-02-17T15:35:44.083Z,20.50
2019-02-17T15:38:15.053Z,20.17
2019-02-17T15:40:45.689Z,19.87
2019-02-17T15:43:16.734Z,19.90
2019-02-17T15:45:47.159Z,20.53
2019-02-17T15:48:17.788Z,19.37
2019-02-17T15:50:48.324Z,19.40
2019-02-17T15:53:18.813Z,21.13
2019-02-17T15:55:49.328Z,20.07
2019-02-17T15:58:19.631Z,19.13
2019-02-17T16:00:50.060Z,19.20
2019-02-17T16:03:20.546Z,17.80
2019-02-17T16:05:50.859Z,19.90
2019-02-17T16:08:21.292Z,19.37
2019-02-17T16:10:51.831Z,19.33
2019-02-17T16:13:22.279Z,19.43
2019-02-17T16:15:53.412Z,18.80
2019-02-17T16:18:24.005Z,19.00
2019-02-17T16:20:54.329Z,17.83
2019-02-17T16:23:27.416Z,18.07
2019-02-17T16:25:57.539Z,18.13
2019-02-17T16:28:28.390Z,18.67
2019-02-17T16:30:58.922Z,16.93
2019-02-17T16:33:29.359Z,18.23
2019-02-17T16:36:00.682Z,17.83
2019-02-17T16:38:31.576Z,17.93
2019-02-17T16:41:03.080Z,18.07
2019-02-17T16:43:34.009Z,17.43
2019-02-17T16:46:04.505Z,19.10
2019-02-17T16:48:34.997Z,17.50
2019-02-17T16:51:06.006Z,18.60
2019-02-17T16:53:36.643Z,17.97
2019-02-17T16:56:07.196Z,18.53
2019-02-17T16:58:37.583Z,18.37
2019-02-17T17:01:08.184Z,17.03
2019-02-17T17:03:38.556Z,17.93
2019-02-17T17:06:09.218Z,18.27
2019-02-17T17:08:39.971Z,18.43
2019-02-17T17:11:10.554Z,22.13
2019-02-17T17:13:40.902Z,21.20
2019-02-17T17:16:11.683Z,18.57
2019-02-17T17:18:42.865Z,19.00
2019-02-17T17:21:13.407Z,19.53
2019-02-17T17:23:44.425Z,18.70
2019-02-17T17:26:14.870Z,18.93
2019-02-17T17:28:45.990Z,18.10
2019-02-17T17:31:16.525Z,19.03
2019-02-17T17:33:47.071Z,19.93
2019-02-17T17:36:17.720Z,31.53
2019-02-17T17:38:48.009Z,21.90
2019-02-17T17:41:19.084Z,18.80
2019-02-17T17:43:51.454Z,18.87
2019-02-17T17:46:22.705Z,19.77
2019-02-17T17:48:53.160Z,20.50
2019-02-17T17:51:23.580Z,19.93
2019-02-17T17:53:54.476Z,19.80
2019-02-17T17:56:24.968Z,20.23
2019-02-17T17:58:55.592Z,20.30
2019-02-17T18:01:27.212Z,20.47
2019-02-17T18:03:57.590Z,20.70
2019-02-17T18:06:28.255Z,21.20
2019-02-17T18:08:59.004Z,20.73
2019-02-17T18:11:30.001Z,21.17
2019-02-17T18:14:01.326Z,20.27
2019-02-17T18:16:33.270Z,20.87
2019-02-17T18:19:04.345Z,21.90
2019-02-17T18:21:36.292Z,26.77
2019-02-17T18:24:07.440Z,24.70
2019-02-17T18:26:39.096Z,21.70
2019-02-17T18:29:10.423Z,23.10
2019-02-17T18:31:41.777Z,22.60
2019-02-17T18:34:12.918Z,22.33
2019-02-17T18:36:43.423Z,21.80
2019-02-17T18:39:14.368Z,44.07
2019-02-17T18:41:45.094Z,25.37
2019-02-17T18:44:16.446Z,22.60
2019-02-17T18:46:48.450Z,23.03
2019-02-17T18:49:19.684Z,22.53
2019-02-17T18:51:50.829Z,23.17
2019-02-17T18:54:22.900Z,22.27
2019-02-17T18:56:53.915Z,22.63
2019-02-17T18:59:25.618Z,21.70
2019-02-17T19:01:56.034Z,22.90
2019-02-17T19:04:27.432Z,22.67
2019-02-17T19:06:58.694Z,22.50
2019-02-17T19:09:29.797Z,23.57
2019-02-17T19:12:01.627Z,23.17
2019-02-17T19:14:32.067Z,29.23
2019-02-17T19:17:03.102Z,33.43
2019-02-17T19:19:33.356Z,24.30
2019-02-17T19:22:03.915Z,23.90
2019-02-17T19:24:34.862Z,23.63
2019-02-17T19:27:05.394Z,25.13
2019-02-17T19:29:36.311Z,24.13
2019-02-17T19:32:07.234Z,24.13
2019-02-17T19:34:38.515Z,23.80
2019-02-17T19:37:09.553Z,24.93
2019-02-17T19:39:40.713Z,24.07
2019-02-17T19:42:11.073Z,25.57
2019-02-17T19:44:41.457Z,24.37
2019-02-17T19:47:11.972Z,24.53
2019-02-17T19:49:43.197Z,24.30
2019-02-17T19:52:13.824Z,24.67
2019-02-17T19:54:44.488Z,26.03
2019-02-17T19:57:14.796Z,25.90
2019-02-17T19:59:45.604Z,26.00
2019-02-17T21:47:50.545Z,28.10
2019-02-17T21:50:19.504Z,29.40
2019-02-17T21:52:52.562Z,29.00
2019-02-17T21:55:21.624Z,29.80
2019-02-17T21:58:11.599Z,31.00
2019-02-17T22:00:40.456Z,29.53
2019-02-17T22:03:09.751Z,30.37
2019-02-17T22:05:43.942Z,31.60
2019-02-17T22:08:13.342Z,30.47
2019-02-17T22:10:43.885Z,30.90
2019-02-17T22:13:17.242Z,32.53
2019-02-17T22:15:49.710Z,31.37
2019-02-17T22:18:18.777Z,29.60
2019-02-17T22:20:49.188Z,30.97
2019-02-17T22:23:19.415Z,33.83
2019-02-17T22:25:48.375Z,33.07
2019-02-17T22:28:22.531Z,33.63
2019-02-17T22:30:57.681Z,33.30
2019-02-17T22:33:30.236Z,33.13
2019-02-17T22:36:02.381Z,34.73
2019-02-17T22:38:32.842Z,33.17
2019-02-17T22:41:05.252Z,34.23
2019-02-17T22:43:35.945Z,32.63
2019-02-17T22:46:04.895Z,34.70
2019-02-17T22:48:35.968Z,34.23
2019-02-17T22:51:09.122Z,34.60
2019-02-17T22:53:43.998Z,34.47
2019-02-17T22:56:17.243Z,33.40
2019-02-17T22:58:46.183Z,35.47
2019-02-17T23:01:19.698Z,32.67
2019-02-17T23:03:48.642Z,33.03
2019-02-17T23:06:17.887Z,34.23
2019-02-17T23:08:46.882Z,35.70
2019-02-17T23:11:17.316Z,33.27
2019-02-17T23:13:57.122Z,32.80
2019-02-17T23:16:23.487Z,34.17
2019-02-17T23:18:54.100Z,35.03
2019-02-17T23:21:23.243Z,34.63
2019-02-17T23:23:52.572Z,34.00
2019-02-17T23:26:21.521Z,34.37
2019-02-17T23:28:51.943Z,33.97
2019-02-17T23:31:21.375Z,34.87
2019-02-17T23:33:54.599Z,34.00
2019-02-17T23:36:25.174Z,34.53
2019-02-17T23:39:07.864Z,33.37
2019-02-17T23:41:39.271Z,32.30
2019-02-17T23:44:09.701Z,33.97
2019-02-17T23:46:39.325Z,33.83
2019-02-17T23:49:12.647Z,32.40
2019-02-17T23:51:44.778Z,32.63
2019-02-17T23:54:14.568Z,33.60
2019-02-17T23:56:43.564Z,34.83
2019-02-17T23:59:13.222Z,35.87
